^^
Datos históricos de la estación: Murcia-Puente Tocinos
Diario Informe para Junio 14, 2021 Unidades:  Métrico    Ingés   Ambas
Diario Semanal Mensual Anual
  Máxima: Mínima: Promedio:
Temperatura: 39.7 °C 24.4 °C 30.4 °C
Punto de rocio: 24.2 °C 16.3 °C 21.1 °C
Humedad: 86% 26% 61%
Velocidad viento: 26.2km/h 0km/h 8.1km/h
Racha viento: 44.4km/h - -
Viento- - ESE
Presión: 1018.9 hPa 1013.3 hPa -
Precipitación: 0.0 mm    
 
 
Tabla de datos para Junio 14, 2021
Hora Temperatura Punto de rocio Presión Viento Velocidad viento Racha viento Humedad Intensidad lluvia(por hora) Nubes
00:04 28.1 °C 20.9 °C 1018.8 hPa North 5.8 km/h 11.1 km/h 65% 0.0 mm
00:09 28.1 °C 20.9 °C 1018.8 hPa NO 6.1 km/h 10 km/h 65% 0.0 mm
00:14 28 °C 21 °C 1018.8 hPa NNO 6.4 km/h 9.3 km/h 66% 0.0 mm
00:19 27.9 °C 21 °C 1018.8 hPa NNO 6.4 km/h 11.1 km/h 66.2% 0.0 mm
00:24 27.8 °C 21.1 °C 1018.8 hPa North 6.4 km/h 11.1 km/h 67% 0.0 mm
00:29 27.8 °C 21.1 °C 1018.8 hPa NNO 6.1 km/h 11.1 km/h 67% 0.0 mm
00:34 27.7 °C 21.2 °C 1018.8 hPa NNO 5.8 km/h 8.4 km/h 67.6% 0.0 mm
00:39 27.7 °C 21.3 °C 1018.8 hPa North 4.9 km/h 7.4 km/h 68% 0.0 mm
00:44 27.7 °C 21.3 °C 1018.8 hPa ONO 3.9 km/h 5.6 km/h 68% 0.0 mm
00:49 27.7 °C 21.3 °C 1018.9 hPa NO 3.6 km/h 7.4 km/h 68% 0.0 mm
00:54 27.7 °C 21.3 °C 1018.9 hPa NNO 3.2 km/h 5.8 km/h 68% 0.0 mm
00:59 27.7 °C 21.3 °C 1018.9 hPa NNE 3.2 km/h 9.3 km/h 68.2% 0.0 mm
01:04 27.6 °C 21.4 °C 1018.9 hPa NNE 3.2 km/h 8.4 km/h 69% 0.0 mm
01:09 27.5 °C 21.3 °C 1018.8 hPa NNE 4.4 km/h 10 km/h 69.4% 0.0 mm
01:14 27.3 °C 21.4 °C 1018.8 hPa NE 5.8 km/h 11.1 km/h 70.1% 0.0 mm
01:19 27.2 °C 21.5 °C 1018.8 hPa ENE 6.6 km/h 11.1 km/h 71% 0.0 mm
01:24 27.2 °C 21.4 °C 1018.6 hPa NE 7.6 km/h 8.4 km/h 71% 0.0 mm
01:29 27.1 °C 21.6 °C 1018.6 hPa NE 6.7 km/h 9.5 km/h 71.9% 0.0 mm
01:34 26.9 °C 21.6 °C 1018.6 hPa NE 5.8 km/h 9.3 km/h 72.4% 0.0 mm
01:39 26.9 °C 21.7 °C 1018.5 hPa NNE 5.4 km/h 7.4 km/h 73% 0.0 mm
01:44 26.8 °C 21.6 °C 1018.5 hPa NO 5 km/h 9.3 km/h 73% 0.0 mm
01:49 26.7 °C 21.5 °C 1018.5 hPa NNE 5 km/h 11.1 km/h 73% 0.0 mm
01:54 26.7 °C 21.6 °C 1018.5 hPa North 5 km/h 11.9 km/h 73.9% 0.0 mm
01:59 26.7 °C 21.7 °C 1018.5 hPa North 5.7 km/h 10 km/h 74% 0.0 mm
02:04 26.7 °C 21.6 °C 1018.6 hPa North 6.4 km/h 11.1 km/h 74% 0.0 mm
02:09 26.6 °C 21.6 °C 1018.6 hPa North 6.4 km/h 9.3 km/h 74% 0.0 mm
02:14 26.6 °C 21.6 °C 1018.6 hPa NNO 6.4 km/h 9.3 km/h 74% 0.0 mm
02:19 26.7 °C 21.6 °C 1018.6 hPa North 5.6 km/h 7.6 km/h 74% 0.0 mm
02:24 26.6 °C 21.6 °C 1018.6 hPa NNO 4.7 km/h 9.5 km/h 74.1% 0.0 mm
02:29 26.6 °C 21.8 °C 1018.6 hPa North 5.2 km/h 9.3 km/h 75% 0.0 mm
02:34 26.6 °C 21.7 °C 1018.6 hPa NNE 5.8 km/h 7.6 km/h 75% 0.0 mm
02:39 26.5 °C 21.6 °C 1018.4 hPa NE 5.3 km/h 7.6 km/h 74.3% 0.0 mm
02:44 26.5 °C 21.5 °C 1018.4 hPa NE 4.7 km/h 9.3 km/h 74% 0.0 mm
02:49 26.5 °C 21.5 °C 1018.4 hPa NE 5.2 km/h 10 km/h 74.1% 0.0 mm
02:54 26.4 °C 21.7 °C 1018.3 hPa NE 5.8 km/h 7.4 km/h 75% 0.0 mm
02:59 26.3 °C 21.6 °C 1018.3 hPa ESE 5.3 km/h 7.4 km/h 75% 0.0 mm
03:04 26.3 °C 21.6 °C 1018.3 hPa ESE 4.7 km/h 7.6 km/h 75.5% 0.0 mm
03:09 26.2 °C 21.6 °C 1018.2 hPa Este 4.7 km/h 7.4 km/h 76% 0.0 mm
03:14 26 °C 21.6 °C 1018.2 hPa Este 4.7 km/h 7.4 km/h 76.9% 0.0 mm
03:19 25.8 °C 21.5 °C 1018.2 hPa ENE 4.8 km/h 11.9 km/h 77% 0.0 mm
03:24 25.8 °C 21.4 °C 1017.9 hPa NE 5 km/h 9.3 km/h 77% 0.0 mm
03:29 25.7 °C 21.4 °C 1017.9 hPa NE 5 km/h 8.4 km/h 77% 0.0 mm
03:34 25.8 °C 21.5 °C 1018.0 hPa NNE 5 km/h 7.4 km/h 77.3% 0.0 mm
03:39 25.8 °C 21.5 °C 1018.0 hPa NO 4.5 km/h 7.4 km/h 77.1% 0.0 mm
03:44 25.7 °C 21.5 °C 1018.0 hPa ONO 3.9 km/h 7.4 km/h 77.4% 0.0 mm
03:49 25.7 °C 21.6 °C 1018.2 hPa NO 3.9 km/h 7.4 km/h 78% 0.0 mm
03:54 25.7 °C 21.6 °C 1018.2 hPa ONO 3.9 km/h 7.4 km/h 78% 0.0 mm
03:59 25.7 °C 21.5 °C 1018.2 hPa Oeste 4.3 km/h 7.4 km/h 78% 0.0 mm
04:04 25.6 °C 21.5 °C 1018.2 hPa Oeste 4.7 km/h 5.6 km/h 78% 0.0 mm
04:09 25.7 °C 21.5 °C 1018.2 hPa Oeste 4 km/h 5.6 km/h 78% 0.0 mm
04:14 25.7 °C 21.6 °C 1018.2 hPa Oeste 3.2 km/h 5.6 km/h 78% 0.0 mm
04:19 25.8 °C 21.7 °C 1018.2 hPa Oeste 2.8 km/h 4.7 km/h 78% 0.0 mm
04:24 25.8 °C 21.6 °C 1018.1 hPa Oeste 2.3 km/h 3.7 km/h 77.6% 0.0 mm
04:29 25.8 °C 21.6 °C 1018.1 hPa Oeste 1.2 km/h 4.7 km/h 77.5% 0.0 mm
04:34 25.9 °C 21.5 °C 1018.1 hPa Calm   4.7 km/h 77% 0.0 mm
04:39 25.9 °C 21.6 °C 1018.0 hPa Oeste 1.4 km/h 3.9 km/h 77.1% 0.0 mm
04:44 26 °C 21.9 °C 1018.0 hPa North 2.9 km/h 5.6 km/h 78% 0.0 mm
04:49 26 °C 21.8 °C 1018.0 hPa Este 2.6 km/h 7.4 km/h 77.9% 0.0 mm
04:54 25.9 °C 21.6 °C 1017.8 hPa ESE 2.3 km/h 7.4 km/h 77% 0.0 mm
04:59 25.8 °C 21.6 °C 1017.8 hPa ESE 2.7 km/h 5.8 km/h 77.7% 0.0 mm
05:04 25.7 °C 21.6 °C 1017.8 hPa ESE 3.2 km/h 3.9 km/h 78% 0.0 mm
05:09 25.7 °C 21.6 °C 1017.7 hPa ESE 1.7 km/h 2.3 km/h 78% 0.0 mm
05:14 25.6 °C 21.6 °C 1017.7 hPa Calm   4.7 km/h 78.8% 0.0 mm
05:19 25.6 °C 21.7 °C 1017.7 hPa Calm   2.3 km/h 79% 0.0 mm
05:24 25.6 °C 21.7 °C 1017.5 hPa Calm   4.7 km/h 79% 0.0 mm
05:29 25.5 °C 21.6 °C 1017.5 hPa Oeste 1.1 km/h 7.4 km/h 79% 0.0 mm
05:34 25.4 °C 21.5 °C 1017.6 hPa Oeste 2.3 km/h 7.4 km/h 79% 0.0 mm
05:39 25.4 °C 21.5 °C 1017.6 hPa Oeste 3 km/h 5.8 km/h 79% 0.0 mm
05:44 25.3 °C 21.4 °C 1017.6 hPa Oeste 3.9 km/h 5.6 km/h 79% 0.0 mm
05:49 25.3 °C 21.4 °C 1017.6 hPa ONO 3.6 km/h 5.8 km/h 79% 0.0 mm
05:54 25.3 °C 21.4 °C 1017.5 hPa ONO 3.2 km/h 5.6 km/h 79% 0.0 mm
05:59 25.2 °C 21.3 °C 1017.5 hPa ONO 3.2 km/h 5.6 km/h 79% 0.0 mm
06:04 25.1 °C 21.2 °C 1017.5 hPa ONO 3.2 km/h 4.7 km/h 79% 0.0 mm
06:09 25 °C 21.1 °C 1017.5 hPa ONO 2.8 km/h 5.6 km/h 79.1% 0.0 mm
06:14 24.9 °C 21.2 °C 1017.5 hPa ONO 2.3 km/h 5.8 km/h 80% 0.0 mm
06:19 24.9 °C 21.3 °C 1017.6 hPa NO 2.7 km/h 3.9 km/h 80.2% 0.0 mm
06:24 24.9 °C 21.4 °C 1017.6 hPa NO 3.2 km/h 5.6 km/h 81% 0.0 mm
06:29 24.8 °C 21.3 °C 1017.6 hPa NO 2.8 km/h 3.7 km/h 80.9% 0.0 mm
06:34 24.8 °C 21.2 °C 1017.7 hPa ONO 2.3 km/h 5.8 km/h 80.4% 0.0 mm
06:39 24.8 °C 21.3 °C 1017.7 hPa OSO 2.3 km/h 3.7 km/h 81% 0.0 mm
06:44 24.8 °C 21.1 °C 1017.7 hPa SSO 2.3 km/h 5.8 km/h 80% 0.0 mm
06:49 24.8 °C 20.8 °C 1017.7 hPa SE 2.7 km/h 7.4 km/h 78.4% 0.0 mm
06:54 24.7 °C 20.4 °C 1017.7 hPa SSE 3.2 km/h 9.3 km/h 76.9% 0.0 mm
06:59 24.7 °C 20.1 °C 1017.7 hPa SE 4.5 km/h 9.5 km/h 75.8% 0.0 mm
07:04 24.7 °C 19.9 °C 1017.7 hPa SE 5.8 km/h 9.5 km/h 74.8% 0.0 mm
07:09 24.7 °C 19.8 °C 1017.6 hPa SE 5.8 km/h 9.5 km/h 74% 0.0 mm
07:14 24.6 °C 19.4 °C 1017.6 hPa SSE 5.8 km/h 10 km/h 73.1% 0.0 mm
07:19 24.4 °C 19.2 °C 1017.8 hPa SSE 6.1 km/h 11.1 km/h 72.8% 0.0 mm
07:24 24.4 °C 19 °C 1017.8 hPa SSE 6.4 km/h 9.3 km/h 72% 0.0 mm
07:29 24.4 °C 19 °C 1017.8 hPa Sur 6.4 km/h 9.3 km/h 72% 0.0 mm
07:34 24.4 °C 19 °C 1017.8 hPa Sur 6.4 km/h 9.3 km/h 72% 0.0 mm
07:39 24.6 °C 19.2 °C 1017.8 hPa SSE 5.7 km/h 7.6 km/h 72% 0.0 mm
07:44 24.7 °C 19.1 °C 1017.8 hPa SSE 5 km/h 7.4 km/h 71.2% 0.0 mm
07:49 24.8 °C 19.1 °C 1017.8 hPa SE 4.8 km/h 7.4 km/h 71% 0.0 mm
07:54 24.8 °C 19.2 °C 1017.8 hPa SSE 4.7 km/h 3.9 km/h 71% 0.0 mm
07:59 24.9 °C 19.2 °C 1017.8 hPa SE 3.5 km/h 5.6 km/h 71% 0.0 mm
08:04 24.9 °C 19.3 °C 1017.9 hPa NNO 2.3 km/h 5.8 km/h 71% 0.0 mm
08:09 24.9 °C 19.4 °C 1017.9 hPa NNO 2.7 km/h 6.4 km/h 71.7% 0.0 mm
08:14 24.9 °C 19.5 °C 1017.9 hPa NNO 3.2 km/h 7.4 km/h 72% 0.0 mm
08:19 24.8 °C 19.5 °C 1017.9 hPa NNO 3.5 km/h 7.4 km/h 72.5% 0.0 mm
08:24 24.8 °C 19.7 °C 1017.9 hPa NNO 3.9 km/h 5.6 km/h 73.6% 0.0 mm
08:29 24.8 °C 19.8 °C 1017.9 hPa ENE 3.6 km/h 5.6 km/h 74% 0.0 mm
08:34 24.9 °C 19.9 °C 1018.0 hPa NNE 3.2 km/h 5.6 km/h 74% 0.0 mm
08:39 24.9 °C 20 °C 1018.0 hPa NNE 3.1 km/h 3.9 km/h 74.1% 0.0 mm
08:44 25.1 °C 20.1 °C 1018.0 hPa NNE 2.9 km/h 3.7 km/h 74% 0.0 mm
08:49 25.3 °C 20.3 °C 1018.0 hPa NNE 1.5 km/h 3.7 km/h 73.6% 0.0 mm
08:54 25.5 °C 20.1 °C 1017.9 hPa Calm   4.7 km/h 72.1% 0.0 mm
08:59 25.7 °C 20.2 °C 1017.9 hPa NNO 1.2 km/h 5.8 km/h 71.7% 0.0 mm
09:04 25.9 °C 20.1 °C 1018.0 hPa NNE 2.3 km/h 5.6 km/h 70.1% 0.0 mm
09:09 26.1 °C 20.1 °C 1018.0 hPa North 2.6 km/h 4.7 km/h 69.4% 0.0 mm
09:14 26.3 °C 20.2 °C 1018.0 hPa North 2.9 km/h 3.7 km/h 69% 0.0 mm
09:19 26.5 °C 20.2 °C 1018.1 hPa North 1.4 km/h 7.4 km/h 68.2% 0.0 mm
09:24 26.8 °C 20.3 °C 1018.1 hPa Calm   6.4 km/h 68% 0.0 mm
09:29 26.8 °C 20.3 °C 1018.1 hPa Este 1.9 km/h 7.4 km/h 67.4% 0.0 mm
09:34 26.9 °C 20.4 °C 1018.1 hPa ESE 3.9 km/h 7.4 km/h 67.5% 0.0 mm
09:39 27 °C 20.4 °C 1018.0 hPa ESE 3.9 km/h 5.8 km/h 67.3% 0.0 mm
09:44 27.1 °C 20.4 °C 1018.0 hPa Sur 3.9 km/h 5.6 km/h 67% 0.0 mm
09:49 27.2 °C 20.5 °C 1018.0 hPa SSO 3.4 km/h 7.4 km/h 67% 0.0 mm
09:54 27.4 °C 20.5 °C 1018.0 hPa NNE 2.9 km/h 7.4 km/h 66.1% 0.0 mm
09:59 27.7 °C 20.8 °C 1018.0 hPa North 3.1 km/h 5.8 km/h 66% 0.0 mm
10:04 27.9 °C 20.8 °C 1018.1 hPa North 3.2 km/h 5.6 km/h 65% 0.0 mm
10:09 28.2 °C 20.9 °C 1018.1 hPa NNO 3.2 km/h 7.4 km/h 64.8% 0.0 mm
10:14 28.4 °C 20.9 °C 1018.1 hPa North 3.2 km/h 8.4 km/h 64% 0.0 mm
10:19 28.5 °C 21 °C 1018.1 hPa North 3.9 km/h 9.3 km/h 64% 0.0 mm
10:24 28.5 °C 21 °C 1018.1 hPa NNE 4.7 km/h 8.4 km/h 64% 0.0 mm
10:29 28.5 °C 21 °C 1018.1 hPa North 4.8 km/h 8.4 km/h 64% 0.0 mm
10:34 28.6 °C 21 °C 1018.2 hPa NNE 5 km/h 8.4 km/h 63.9% 0.0 mm
10:39 28.7 °C 21 °C 1018.2 hPa NNE 5 km/h 10.3 km/h 63.1% 0.0 mm
10:44 28.8 °C 21.1 °C 1018.2 hPa NNE 5 km/h 11.1 km/h 63% 0.0 mm
10:49 29 °C 21.1 °C 1018.2 hPa NNE 5 km/h 11.1 km/h 62.4% 0.0 mm
10:54 29.1 °C 21 °C 1018.1 hPa NNE 5 km/h 13 km/h 62% 0.0 mm
10:59 28.9 °C 21 °C 1018.1 hPa NNE 6.3 km/h 13 km/h 62.1% 0.0 mm
11:04 29 °C 21.2 °C 1018.2 hPa NNE 7.6 km/h 11.1 km/h 62.8% 0.0 mm
11:09 29.3 °C 21 °C 1018.2 hPa NNE 7 km/h 11.1 km/h 61.2% 0.0 mm
11:14 29.5 °C 20.9 °C 1018.2 hPa NNE 6.4 km/h 11.9 km/h 59.9% 0.0 mm
11:19 29.7 °C 21.1 °C 1018.2 hPa NNE 6.4 km/h 13 km/h 60% 0.0 mm
11:24 30 °C 21.1 °C 1018.1 hPa NNE 6.4 km/h 13 km/h 59% 0.0 mm
11:29 30.2 °C 20.9 °C 1018.1 hPa North 6.4 km/h 11.1 km/h 57.7% 0.0 mm
11:34 30.3 °C 20.6 °C 1018.2 hPa North 6.4 km/h 13 km/h 56.1% 0.0 mm
11:39 30.4 °C 20.2 °C 1018.2 hPa NNE 7 km/h 13.7 km/h 54.6% 0.0 mm
11:44 30.6 °C 20.4 °C 1018.2 hPa NNE 7.6 km/h 12.2 km/h 54.5% 0.0 mm
11:49 30.8 °C 20.2 °C 1018.2 hPa North 7 km/h 13 km/h 53.2% 0.0 mm
11:54 30.9 °C 20.3 °C 1018.0 hPa NNE 6.4 km/h 14 km/h 53.3% 0.0 mm
11:59 31 °C 20.3 °C 1018.0 hPa North 7 km/h 14.8 km/h 52.8% 0.0 mm
12:04 31.3 °C 20.3 °C 1018.0 hPa NE 7.6 km/h 14.8 km/h 52.3% 0.0 mm
12:09 31.5 °C 20.2 °C 1017.9 hPa NNE 7.3 km/h 13 km/h 51.4% 0.0 mm
12:14 31.7 °C 20.3 °C 1017.9 hPa North 6.9 km/h 11.1 km/h 50.9% 0.0 mm
12:19 31.9 °C 20.2 °C 1017.9 hPa NNO 6.7 km/h 13.7 km/h 50% 0.0 mm
12:24 32 °C 20.3 °C 1017.7 hPa NNE 6.4 km/h 13 km/h 49.9% 0.0 mm
12:29 32.2 °C 20.4 °C 1017.7 hPa NNE 7.4 km/h 11.9 km/h 49.9% 0.0 mm
12:34 32.3 °C 20.6 °C 1017.7 hPa North 8.4 km/h 13.7 km/h 49.9% 0.0 mm
12:39 32.7 °C 20.8 °C 1017.4 hPa NNE 7.7 km/h 13.7 km/h 49.7% 0.0 mm
12:44 32.8 °C 20.8 °C 1017.4 hPa North 6.9 km/h 13 km/h 49.4% 0.0 mm
12:49 33.1 °C 21 °C 1017.4 hPa North 6.7 km/h 13 km/h 49.2% 0.0 mm
12:54 33.3 °C 21 °C 1017.2 hPa NNE 6.4 km/h 16.7 km/h 48.6% 0.0 mm
12:59 33.3 °C 20.6 °C 1017.2 hPa NE 7 km/h 13 km/h 47.4% 0.0 mm
13:04 33.6 °C 19.7 °C 1017.2 hPa North 7.6 km/h 16.4 km/h 44% 0.0 mm
13:09 34 °C 21 °C 1016.9 hPa NNE 7.9 km/h 16.7 km/h 46.7% 0.0 mm
13:14 34 °C 21.2 °C 1016.9 hPa NNE 8.4 km/h 16.4 km/h 47.3% 0.0 mm
13:19 33.9 °C 21.3 °C 1016.9 hPa NNE 8.9 km/h 16.7 km/h 47.8% 0.0 mm
13:24 34.2 °C 21.4 °C 1016.7 hPa NNE 9.5 km/h 15.6 km/h 47.6% 0.0 mm
13:29 34.4 °C 21.6 °C 1016.7 hPa NNE 8.3 km/h 16.7 km/h 47.4% 0.0 mm
13:34 34.6 °C 21.8 °C 1016.7 hPa NE 6.9 km/h 16.1 km/h 47.4% 0.0 mm
13:39 34.7 °C 21.7 °C 1016.5 hPa North 8.5 km/h 18.5 km/h 47% 0.0 mm
13:44 34.7 °C 21.8 °C 1016.5 hPa North 10 km/h 19 km/h 47.2% 0.0 mm
13:49 34.8 °C 21.8 °C 1016.5 hPa NE 9.4 km/h 19 km/h 46.7% 0.0 mm
13:54 34.9 °C 21.9 °C 1016.3 hPa NNE 8.7 km/h 19 km/h 47% 0.0 mm
13:59 35.2 °C 22 °C 1016.3 hPa NNE 9.3 km/h 18.5 km/h 46.6% 0.0 mm
14:04 35.3 °C 21.8 °C 1016.3 hPa North 10 km/h 18.5 km/h 45.6% 0.0 mm
14:09 35.5 °C 21.7 °C 1016.1 hPa North 10 km/h 20.4 km/h 44.9% 0.0 mm
14:14 35.7 °C 21.5 °C 1016.1 hPa NNE 10 km/h 20.4 km/h 43.9% 0.0 mm
14:19 35.8 °C 21.5 °C 1016.1 hPa NNE 10.5 km/h 15.6 km/h 43.5% 0.0 mm
14:24 36.1 °C 21.5 °C 1015.8 hPa NNE 11.1 km/h 16.7 km/h 42.9% 0.0 mm
14:29 36.3 °C 21.4 °C 1015.8 hPa North 10.3 km/h 18.5 km/h 42% 0.0 mm
14:34 36.5 °C 21.1 °C 1015.8 hPa NE 9.5 km/h 20.4 km/h 41.1% 0.0 mm
14:39 36.6 °C 21.3 °C 1015.5 hPa NNE 10.3 km/h 20.9 km/h 41.2% 0.0 mm
14:44 36.8 °C 21.4 °C 1015.5 hPa NNE 11.1 km/h 20.4 km/h 41% 0.0 mm
14:49 36.8 °C 21.5 °C 1015.5 hPa NNE 10.6 km/h 20.4 km/h 41.3% 0.0 mm
14:54 37 °C 21.4 °C 1015.3 hPa NNE 10 km/h 18.5 km/h 40.6% 0.0 mm
14:59 37.1 °C 21.2 °C 1015.3 hPa North 9.7 km/h 16.7 km/h 39.8% 0.0 mm
15:04 37.3 °C 20.9 °C 1015.3 hPa NNE 9.5 km/h 19 km/h 38.8% 0.0 mm
15:09 37.4 °C 20.4 °C 1015.2 hPa NNE 10.3 km/h 18.5 km/h 37.3% 0.0 mm
15:14 37.6 °C 20.2 °C 1015.2 hPa NNE 11.1 km/h 20.9 km/h 36.4% 0.0 mm
15:19 37.7 °C 20 °C 1015.2 hPa NNE 11.5 km/h 20.9 km/h 35.8% 0.0 mm
15:24 37.8 °C 19.9 °C 1015.0 hPa NNE 11.9 km/h 20.4 km/h 35.3% 0.0 mm
15:29 37.9 °C 20.2 °C 1015.0 hPa NNE 11.9 km/h 22.5 km/h 36% 0.0 mm
15:34 37.9 °C 20.6 °C 1015.0 hPa NNE 11.9 km/h 27.8 km/h 36.8% 0.0 mm
15:39 37.9 °C 21.1 °C 1014.8 hPa NE 12.9 km/h 24.1 km/h 38.1% 0.0 mm
15:44 37.9 °C 21.5 °C 1014.8 hPa NNE 14 km/h 22.2 km/h 39% 0.0 mm
15:49 38 °C 21.6 °C 1014.8 hPa NNE 13.1 km/h 20.9 km/h 39% 0.0 mm
15:54 38.2 °C 21.8 °C 1014.6 hPa NNE 12.2 km/h 20.4 km/h 39% 0.0 mm
15:59 38.3 °C 21.9 °C 1014.6 hPa NNE 11.7 km/h 19.8 km/h 39% 0.0 mm
16:04 38.3 °C 21.8 °C 1014.6 hPa NNE 11.1 km/h 24.5 km/h 38.6% 0.0 mm
16:09 38.2 °C 21.6 °C 1014.5 hPa NNE 12.8 km/h 25.9 km/h 38.3% 0.0 mm
16:14 38.3 °C 21.5 °C 1014.5 hPa NNE 14.8 km/h 24.1 km/h 38% 0.0 mm
16:19 38.3 °C 21.1 °C 1014.5 hPa North 14 km/h 21.7 km/h 37.2% 0.0 mm
16:24 38.5 °C 21.1 °C 1014.4 hPa NNE 13 km/h 22.2 km/h 36.8% 0.0 mm
16:29 38.7 °C 21 °C 1014.4 hPa NNE 13 km/h 22 km/h 36.2% 0.0 mm
16:34 38.7 °C 20.7 °C 1014.4 hPa NNE 13 km/h 22.2 km/h 35.4% 0.0 mm
16:39 38.8 °C 20.6 °C 1014.2 hPa North 12.6 km/h 18.5 km/h 35% 0.0 mm
16:44 38.9 °C 20.4 °C 1014.2 hPa NNE 12.2 km/h 20.1 km/h 34.4% 0.0 mm
16:49 39.1 °C 20.6 °C 1014.2 hPa North 11.3 km/h 20.4 km/h 34.4% 0.0 mm
16:54 39.2 °C 20.2 °C 1014.1 hPa NE 10.3 km/h 20.4 km/h 33.6% 0.0 mm
16:59 39 °C 20.4 °C 1014.1 hPa North 10.3 km/h 16.7 km/h 34.2% 0.0 mm
17:04 39 °C 20.1 °C 1014.1 hPa North 10.3 km/h 16.7 km/h 33.7% 0.0 mm
17:09 39.2 °C 19.6 °C 1014.0 hPa NE 9.6 km/h 27.8 km/h 32.2% 0.0 mm
17:14 39.5 °C 18.8 °C 1014.0 hPa Este 8.7 km/h 16.7 km/h 30.2% 0.0 mm
17:19 39.6 °C 18.3 °C 1014.2 hPa ENE 8.7 km/h 11.9 km/h 29.1% 0.0 mm
17:24 39.7 °C 18.6 °C 1014.2 hPa NO 8.7 km/h 27 km/h 29.4% 0.0 mm
17:29 39.6 °C 17.9 °C 1014.2 hPa North 9.3 km/h 29.6 km/h 28.4% 0.0 mm
17:34 39.3 °C 18.5 °C 1014.3 hPa NNE 10 km/h 24.5 km/h 29.9% 0.0 mm
17:39 38.9 °C 18.2 °C 1014.3 hPa NNE 12.3 km/h 24.1 km/h 30% 0.0 mm
17:44 38.9 °C 17.6 °C 1014.3 hPa NNE 14.8 km/h 22.5 km/h 28.9% 0.0 mm
17:49 39 °C 17.1 °C 1014.3 hPa NE 14.4 km/h 22.2 km/h 27.8% 0.0 mm
17:54 39.2 °C 16.9 °C 1014.0 hPa NE 14 km/h 22.5 km/h 27.2% 0.0 mm
17:59 39.2 °C 16.6 °C 1014.0 hPa NE 13.5 km/h 24.1 km/h 26.6% 0.0 mm
18:04 39.3 °C 16.3 °C 1014.0 hPa NE 13 km/h 19 km/h 26% 0.0 mm
18:09 39.4 °C 16.3 °C 1013.7 hPa NE 12.5 km/h 20.4 km/h 26% 0.0 mm
18:14 39.4 °C 16.3 °C 1013.7 hPa NE 11.9 km/h 17.2 km/h 26% 0.0 mm
18:19 39.4 °C 16.3 °C 1013.7 hPa NE 11.5 km/h 20.4 km/h 26% 0.0 mm
18:24 39.4 °C 16.3 °C 1013.7 hPa NE 11.1 km/h 20.4 km/h 26% 0.0 mm
18:29 39.3 °C 16.5 °C 1013.7 hPa NE 12 km/h 22.2 km/h 26.4% 0.0 mm
18:34 39.3 °C 16.8 °C 1013.7 hPa NNE 13 km/h 22 km/h 27% 0.0 mm
18:39 39.2 °C 16.8 °C 1013.5 hPa NNE 13.3 km/h 24.1 km/h 27.2% 0.0 mm
18:44 39 °C 16.9 °C 1013.5 hPa NNE 13.7 km/h 22.2 km/h 27.5% 0.0 mm
18:49 39 °C 17.1 °C 1013.7 hPa NNE 14.2 km/h 24.5 km/h 28% 0.0 mm
18:54 38.7 °C 19.6 °C 1013.7 hPa NNE 14.8 km/h 25.1 km/h 33.3% 0.0 mm
18:59 38 °C 20.8 °C 1013.7 hPa NNE 15.5 km/h 25.9 km/h 37.1% 0.0 mm
19:04 37.6 °C 20.7 °C 1013.7 hPa NE 16.1 km/h 24.1 km/h 37.8% 0.0 mm
19:09 37.3 °C 20.7 °C 1013.7 hPa NNE 15.5 km/h 22.2 km/h 38.2% 0.0 mm
19:14 37.3 °C 20.6 °C 1013.7 hPa NE 14.8 km/h 22.2 km/h 38.1% 0.0 mm
19:19 37.3 °C 21 °C 1013.7 hPa NNE 13.4 km/h 17.2 km/h 39% 0.0 mm
19:24 37.2 °C 20.9 °C 1013.5 hPa NNE 11.9 km/h 20.4 km/h 39% 0.0 mm
19:29 37.2 °C 21.4 °C 1013.5 hPa NE 12.5 km/h 18.5 km/h 40.2% 0.0 mm
19:34 36.9 °C 21.4 °C 1013.5 hPa NE 13 km/h 13 km/h 40.7% 0.0 mm
19:39 36.9 °C 21.3 °C 1013.3 hPa NE 10.9 km/h 10.3 km/h 40.3% 0.0 mm
19:44 37.1 °C 21.3 °C 1013.3 hPa ENE 8.4 km/h 14.8 km/h 40% 0.0 mm
19:49 37 °C 21.3 °C 1013.4 hPa NE 7.7 km/h 14.8 km/h 40.2% 0.0 mm
19:54 36.8 °C 21.7 °C 1013.4 hPa NE 6.9 km/h 18.5 km/h 41.7% 0.0 mm
19:59 36.2 °C 22.5 °C 1013.4 hPa NNE 8.6 km/h 29.1 km/h 45.4% 0.0 mm
20:04 35.1 °C 22.9 °C 1013.7 hPa NNE 10.3 km/h 29.6 km/h 49.3% 0.0 mm
20:09 34.4 °C 23.1 °C 1013.7 hPa NE 13.6 km/h 27.8 km/h 52% 0.0 mm
20:14 33.9 °C 23.3 °C 1013.7 hPa NE 17.2 km/h 22.2 km/h 54.2% 0.0 mm
20:19 33.5 °C 23.5 °C 1013.9 hPa NE 16 km/h 23.3 km/h 56% 0.0 mm
20:24 33.1 °C 23.6 °C 1013.9 hPa NNE 14.8 km/h 24.1 km/h 57.6% 0.0 mm
20:29 32.7 °C 23.6 °C 1013.9 hPa NNE 14.3 km/h 24.1 km/h 59.1% 0.0 mm
20:34 32.2 °C 23.7 °C 1014.5 hPa NNE 13.7 km/h 33.3 km/h 61.1% 0.0 mm
20:39 31.5 °C 23.6 °C 1014.5 hPa NNE 16.9 km/h 40.7 km/h 62.9% 0.0 mm
20:44 30.8 °C 23.3 °C 1014.5 hPa NNE 20.1 km/h 38.9 km/h 64.2% 0.0 mm
20:49 30.5 °C 23.4 °C 1015.1 hPa NNE 21.8 km/h 42.6 km/h 66.1% 0.0 mm
20:54 30.1 °C 23.3 °C 1015.1 hPa NNE 23.7 km/h 43.1 km/h 67% 0.0 mm
20:59 29.7 °C 23 °C 1015.1 hPa NNE 24.6 km/h 38.9 km/h 67.3% 0.0 mm
21:04 29.3 °C 23.3 °C 1015.3 hPa NE 25.6 km/h 44.4 km/h 70.2% 0.0 mm
21:09 29 °C 23.4 °C 1015.3 hPa NE 25.9 km/h 42.6 km/h 72% 0.0 mm
21:14 28.9 °C 23.3 °C 1015.3 hPa NE 26.2 km/h 32.8 km/h 72% 0.0 mm
21:19 28.8 °C 22.9 °C 1015.5 hPa NE 24.4 km/h 33.3 km/h 70.7% 0.0 mm
21:24 28.8 °C 22.5 °C 1015.5 hPa NE 20.9 km/h 25.9 km/h 68.9% 0.0 mm
21:29 28.8 °C 22.2 °C 1015.5 hPa NE 19.7 km/h 25.9 km/h 67.4% 0.0 mm
21:34 28.9 °C 22.2 °C 1015.7 hPa NE 15.6 km/h 24.5 km/h 67% 0.0 mm
21:39 28.9 °C 21.9 °C 1015.7 hPa NE 15.6 km/h 24.1 km/h 66.2% 0.0 mm
21:44 28.8 °C 22.1 °C 1015.7 hPa NE 15.6 km/h 20.4 km/h 67% 0.0 mm
21:49 28.7 °C 22.3 °C 1016.0 hPa NE 14.7 km/h 27.4 km/h 68.6% 0.0 mm
21:54 28.6 °C 22.4 °C 1016.0 hPa NE 13.7 km/h 27.8 km/h 69.4% 0.0 mm
21:59 28.4 °C 22.4 °C 1016.0 hPa NE 14.6 km/h 20.9 km/h 70% 0.0 mm
22:04 28.4 °C 22.6 °C 1016.1 hPa NE 15.6 km/h 18.5 km/h 71% 0.0 mm
22:09 28.3 °C 22.7 °C 1016.1 hPa NE 13.8 km/h 18.5 km/h 72% 0.0 mm
22:14 28.2 °C 22.7 °C 1016.1 hPa NNE 11.9 km/h 15.6 km/h 72.2% 0.0 mm
22:19 28.2 °C 22.9 °C 1016.7 hPa NNE 10.8 km/h 18.3 km/h 73% 0.0 mm
22:24 28.1 °C 23 °C 1016.7 hPa NNE 9.5 km/h 20.4 km/h 74% 0.0 mm
22:29 27.8 °C 23.1 °C 1016.7 hPa NE 10.6 km/h 16.7 km/h 75.3% 0.0 mm
22:34 27.8 °C 23.1 °C 1016.8 hPa NE 11.9 km/h 18.5 km/h 76% 0.0 mm
22:39 27.7 °C 23.3 °C 1016.8 hPa NE 11 km/h 18 km/h 76.9% 0.0 mm
22:44 27.6 °C 23.2 °C 1016.8 hPa NNE 10 km/h 18.5 km/h 77.1% 0.0 mm
22:49 27.5 °C 23.4 °C 1016.8 hPa NNE 10 km/h 13.7 km/h 78.1% 0.0 mm
22:54 27.4 °C 23.6 °C 1016.6 hPa NNE 10 km/h 14.8 km/h 79.6% 0.0 mm
22:59 27.3 °C 23.8 °C 1016.6 hPa NNE 8.8 km/h 11.1 km/h 80.7% 0.0 mm
23:04 27.3 °C 23.9 °C 1016.6 hPa NNE 7.6 km/h 18 km/h 81.8% 0.0 mm
23:09 27.1 °C 24 °C 1016.6 hPa NNE 9.6 km/h 25.9 km/h 83% 0.0 mm
23:14 26.9 °C 24 °C 1016.6 hPa NNE 11.9 km/h 20.9 km/h 84% 0.0 mm
23:19 26.8 °C 23.9 °C 1016.6 hPa North 12.9 km/h 18.5 km/h 84% 0.0 mm
23:24 26.8 °C 23.9 °C 1016.6 hPa NNE 14 km/h 14.8 km/h 84.1% 0.0 mm
23:29 26.8 °C 23.9 °C 1016.6 hPa NNE 11.9 km/h 16.7 km/h 84.2% 0.0 mm
23:34 26.8 °C 24.1 °C 1016.6 hPa NNE 9.5 km/h 15.6 km/h 85% 0.0 mm
23:39 26.8 °C 24.1 °C 1016.6 hPa North 8.9 km/h 13.7 km/h 85% 0.0 mm
23:44 26.8 °C 24 °C 1016.6 hPa NNE 8.4 km/h 13 km/h 85% 0.0 mm
23:49 26.7 °C 24 °C 1016.6 hPa NNE 7.7 km/h 14.8 km/h 85% 0.0 mm
23:54 26.7 °C 24.1 °C 1016.6 hPa NNE 6.9 km/h 9.5 km/h 85.5% 0.0 mm
23:59 26.7 °C 24.2 °C 1016.6 hPa NNE 5.9 km/h 9.3 km/h 86% 0.0 mm
Murcia-Puente Tocinos, Espa?a
Compliments of Weather Underground - 3.25 mb

La estación de MeteoMurcia.com, publica sus datos en los siguientes proyectos:

Weather Underground PWS IMURCIAP2 Meteoclimatic www.awekas.at

W3Counter
Web Analytics